createdAt,value
2022-08-21T00:01:17.413Z,99826.78
2022-08-21T00:03:49.817Z,99818.83
2022-08-21T00:06:19.830Z,99812.08
2022-08-21T00:08:52.767Z,99803.71
2022-08-21T00:12:02.270Z,99803.35
2022-08-21T00:14:36.640Z,99804.01
2022-08-21T00:17:08.435Z,99800.77
2022-08-21T00:19:39.025Z,99799.65
2022-08-21T00:22:08.976Z,99788.98
2022-08-21T00:24:39.783Z,99784.58
2022-08-21T00:27:11.388Z,99776.23
2022-08-21T00:34:00.906Z,99756.96
2022-08-21T00:36:34.179Z,99757.82
2022-08-21T00:39:07.883Z,99754.84
2022-08-21T00:41:41.623Z,99747.64
2022-08-21T00:44:14.768Z,99741.75
2022-08-21T00:46:48.019Z,99736.46
2022-08-21T00:49:20.638Z,99731.06
2022-08-21T00:51:57.019Z,99723.52
2022-08-21T00:54:30.055Z,99727.69
2022-08-21T00:57:08.919Z,99743.21
2022-08-21T00:59:41.019Z,99746.28
2022-08-21T01:02:12.593Z,99748.95
2022-08-21T01:04:45.329Z,99749.89
2022-08-21T01:07:17.763Z,99748.44
2022-08-21T01:09:50.311Z,99742.83
2022-08-21T01:12:22.695Z,99748.17
2022-08-21T01:14:53.241Z,99743.06
2022-08-21T01:17:24.331Z,99744.86
2022-08-21T01:19:59.465Z,99747.66
2022-08-21T01:22:29.724Z,99748.48
2022-08-21T01:25:02.071Z,99746.26
2022-08-21T01:27:34.363Z,99742.73
2022-08-21T01:30:12.463Z,99742.98
2022-08-21T01:32:41.731Z,99741.91
2022-08-21T01:35:15.967Z,99737.60
2022-08-21T01:37:46.610Z,99737.14
2022-08-21T01:40:18.605Z,99736.00
2022-08-21T01:42:48.798Z,99742.14
2022-08-21T01:45:19.422Z,99744.82
2022-08-21T01:47:50.512Z,99743.14
2022-08-21T01:50:21.947Z,99739.67
2022-08-21T01:52:53.332Z,99743.72
2022-08-21T01:55:27.055Z,99739.89
2022-08-21T01:57:57.934Z,99738.89
2022-08-21T02:00:30.201Z,99737.59
2022-08-21T02:03:01.422Z,99741.11
2022-08-21T02:05:31.655Z,99741.48
2022-08-21T02:08:08.563Z,99741.06
2022-08-21T02:10:39.202Z,99735.21
2022-08-21T02:13:15.448Z,99733.26
2022-08-21T02:15:46.735Z,99729.73
2022-08-21T02:18:17.710Z,99727.16
2022-08-21T02:20:56.085Z,99728.89
2022-08-21T02:23:46.504Z,99731.19
2022-08-21T02:26:19.667Z,99731.01
2022-08-21T02:33:42.482Z,99712.13
2022-08-21T02:36:16.308Z,99710.36
2022-08-21T02:38:48.652Z,99706.71
2022-08-21T02:41:23.661Z,99706.93
2022-08-21T02:43:52.900Z,99715.95
2022-08-21T02:46:25.276Z,99712.88
2022-08-21T02:48:59.599Z,99715.72
2022-08-21T02:52:04.411Z,99721.67
2022-08-21T02:55:25.097Z,99723.30
2022-08-21T02:57:55.920Z,99719.91
2022-08-21T03:00:48.443Z,99709.55
2022-08-21T03:03:18.673Z,99706.86
2022-08-21T03:05:51.101Z,99705.92
2022-08-21T03:08:22.811Z,99703.26
2022-08-21T03:10:56.316Z,99701.71
2022-08-21T03:13:28.664Z,99702.30
2022-08-21T03:15:57.723Z,99703.48
2022-08-21T03:18:29.312Z,99709.34
2022-08-21T03:20:58.620Z,99714.92
2022-08-21T03:23:32.676Z,99717.58
2022-08-21T03:26:45.818Z,99722.07
2022-08-21T03:30:09.889Z,99723.84
2022-08-21T03:33:03.270Z,99732.59
2022-08-21T03:35:47.113Z,99739.19
2022-08-21T03:38:22.272Z,99743.93
2022-08-21T03:40:54.041Z,99744.92
2022-08-21T03:43:26.576Z,99742.01
2022-08-21T03:46:08.983Z,99743.48
2022-08-21T03:48:41.766Z,99744.93
2022-08-21T03:51:17.153Z,99751.41
2022-08-21T03:53:48.640Z,99751.83
2022-08-21T03:56:19.268Z,99751.69
2022-08-21T03:58:50.747Z,99754.40
2022-08-21T04:01:24.332Z,99751.92
2022-08-21T04:03:57.102Z,99756.24
2022-08-21T04:06:35.790Z,99757.39
2022-08-21T04:10:07.948Z,99756.14
2022-08-21T04:12:39.129Z,99760.11
2022-08-21T04:15:11.698Z,99761.66
2022-08-21T04:17:43.845Z,99764.14
2022-08-21T04:20:14.961Z,99763.26
2022-08-21T04:22:52.030Z,99764.80
2022-08-21T04:25:25.036Z,99763.23
2022-08-21T04:27:56.298Z,99766.17
2022-08-21T04:30:28.986Z,99768.20
2022-08-21T04:33:00.878Z,99775.81
2022-08-21T04:35:33.214Z,99779.63
2022-08-21T04:38:03.198Z,99775.04
2022-08-21T04:40:32.742Z,99778.94
2022-08-21T04:43:10.131Z,99776.80
2022-08-21T04:45:44.261Z,99780.95
2022-08-21T04:48:16.413Z,99779.04
2022-08-21T04:50:52.683Z,99777.41
2022-08-21T04:53:35.524Z,99777.63
2022-08-21T04:56:13.706Z,99779.70
2022-08-21T04:58:44.749Z,99780.10
2022-08-21T05:01:21.499Z,99783.20
2022-08-21T05:03:58.552Z,99790.17
2022-08-21T05:06:32.740Z,99795.45
2022-08-21T05:09:04.592Z,99791.58
2022-08-21T05:11:38.528Z,99780.92
2022-08-21T05:14:08.201Z,99782.34
2022-08-21T05:16:38.160Z,99788.61
2022-08-21T05:19:36.315Z,99795.55
2022-08-21T05:22:05.231Z,99794.63
2022-08-21T05:24:35.521Z,99796.85
2022-08-21T05:27:05.672Z,99799.44
2022-08-21T05:29:37.400Z,99802.98
2022-08-21T05:32:13.078Z,99801.15
2022-08-21T05:34:43.339Z,99796.46
2022-08-21T05:37:14.917Z,99795.98
2022-08-21T05:40:04.803Z,99794.48
2022-08-21T05:42:38.904Z,99792.20
2022-08-21T05:45:13.970Z,99797.09
2022-08-21T05:47:43.626Z,99797.05
2022-08-21T05:50:13.710Z,99791.92
2022-08-21T05:52:43.017Z,99796.57
2022-08-21T05:55:15.415Z,99795.00
2022-08-21T05:57:57.548Z,99795.29
2022-08-21T06:03:27.215Z,99794.20
2022-08-21T06:06:27.972Z,99792.67
2022-08-21T06:09:21.006Z,99793.39
2022-08-21T06:11:53.030Z,99798.00
2022-08-21T06:14:28.861Z,99801.52
2022-08-21T06:17:21.436Z,99798.58
2022-08-21T06:20:01.240Z,99801.26
2022-08-21T06:22:44.450Z,99804.08
2022-08-21T06:25:38.939Z,99802.01
2022-08-21T06:28:12.848Z,99792.02
2022-08-21T06:31:18.671Z,99792.91
2022-08-21T06:33:54.650Z,99789.42
2022-08-21T06:36:30.097Z,99785.12
2022-08-21T06:39:06.689Z,99788.33
2022-08-21T06:41:57.371Z,99785.90
2022-08-21T06:44:31.907Z,99782.06
2022-08-21T06:47:04.210Z,99774.11
2022-08-21T06:49:33.815Z,99770.41
2022-08-21T06:52:05.561Z,99766.54
2022-08-21T06:54:35.821Z,99771.42
2022-08-21T06:57:06.134Z,99775.91
2022-08-21T06:59:59.532Z,99778.13
2022-08-21T07:02:56.693Z,99784.77
2022-08-21T07:05:30.317Z,99780.93
2022-08-21T07:07:59.784Z,99782.77
2022-08-21T07:10:30.186Z,99776.38
2022-08-21T07:16:09.614Z,99760.80
2022-08-21T07:18:39.971Z,99757.60
2022-08-21T07:21:10.815Z,99758.75
2022-08-21T07:23:49.379Z,99756.70
2022-08-21T07:26:22.131Z,99767.61
2022-08-21T07:33:01.406Z,99771.80
2022-08-21T07:35:34.936Z,99776.39
2022-08-21T07:38:05.835Z,99781.16
2022-08-21T07:40:37.622Z,99778.92
2022-08-21T07:43:08.527Z,99777.91
2022-08-21T07:45:37.853Z,99775.44
2022-08-21T07:48:06.678Z,99771.89
2022-08-21T07:50:36.028Z,99770.10
2022-08-21T07:53:09.095Z,99776.72
2022-08-21T07:55:38.121Z,99770.23
2022-08-21T07:58:08.412Z,99768.00
2022-08-21T08:00:39.419Z,99767.19
2022-08-21T08:03:11.121Z,99763.94
2022-08-21T08:05:40.774Z,99760.33
2022-08-21T08:08:10.851Z,99760.56
2022-08-21T08:10:40.757Z,99760.09
2022-08-21T08:13:11.930Z,99759.89
2022-08-21T08:15:42.209Z,99757.34
2022-08-21T08:18:16.689Z,99758.86
2022-08-21T08:20:46.598Z,99760.18
2022-08-21T08:23:20.975Z,99759.79
2022-08-21T08:25:54.956Z,99764.85
2022-08-21T08:28:25.386Z,99765.75
2022-08-21T08:30:57.494Z,99768.72
2022-08-21T08:33:27.532Z,99769.59
2022-08-21T08:36:23.766Z,99769.81
2022-08-21T08:39:31.640Z,99763.27
2022-08-21T08:42:36.079Z,99759.60
2022-08-21T08:45:23.507Z,99761.27
2022-08-21T08:48:14.482Z,99761.75
2022-08-21T08:51:00.168Z,99763.38
2022-08-21T08:53:50.031Z,99764.84
2022-08-21T08:56:23.720Z,99763.45
2022-08-21T08:58:54.739Z,99761.27
2022-08-21T09:01:24.954Z,99766.31
2022-08-21T09:03:59.246Z,99767.59
2022-08-21T09:06:44.531Z,99764.94
2022-08-21T09:09:41.370Z,99760.04
2022-08-21T09:12:33.316Z,99756.15
2022-08-21T09:15:19.072Z,99755.39
2022-08-21T09:17:58.726Z,99754.08
2022-08-21T09:20:34.100Z,99761.52
2022-08-21T09:23:26.771Z,99756.98
2022-08-21T09:26:09.457Z,99756.27
2022-08-21T09:28:42.498Z,99754.48
2022-08-21T09:31:36.341Z,99754.46
2022-08-21T09:34:11.697Z,99754.42
2022-08-21T09:36:44.586Z,99758.95
2022-08-21T09:39:26.910Z,99759.94
2022-08-21T09:42:04.072Z,99761.15
2022-08-21T09:44:37.444Z,99756.86
2022-08-21T09:47:07.027Z,99753.98
2022-08-21T09:49:39.644Z,99751.04
2022-08-21T09:52:26.464Z,99745.95
2022-08-21T09:54:58.809Z,99746.13
2022-08-21T09:57:46.686Z,99748.02
2022-08-21T10:00:27.218Z,99742.83
2022-08-21T10:02:56.106Z,99735.80
2022-08-21T10:05:30.322Z,99737.71
2022-08-21T10:08:03.126Z,99734.94
2022-08-21T10:10:38.008Z,99734.84
2022-08-21T10:13:23.556Z,99729.96
2022-08-21T10:16:17.835Z,99731.19
2022-08-21T10:19:22.017Z,99725.89
2022-08-21T10:22:07.142Z,99727.95
2022-08-21T10:24:57.498Z,99729.54
2022-08-21T10:27:45.031Z,99730.24
2022-08-21T10:31:04.291Z,99728.63
2022-08-21T10:34:11.142Z,99728.26
2022-08-21T10:37:10.557Z,99736.80
2022-08-21T10:39:52.944Z,99737.56
2022-08-21T10:42:27.454Z,99738.04
2022-08-21T10:45:45.178Z,99735.20
2022-08-21T10:48:33.482Z,99740.52
2022-08-21T10:51:20.922Z,99735.38
2022-08-21T10:54:20.226Z,99739.95
2022-08-21T10:57:01.990Z,99744.17
2022-08-21T11:00:12.712Z,99742.96
2022-08-21T11:03:17.708Z,99740.92
2022-08-21T11:05:53.499Z,99735.88
2022-08-21T11:08:36.136Z,99738.77
2022-08-21T11:11:08.776Z,99743.17
2022-08-21T11:13:49.699Z,99745.58
2022-08-21T11:16:39.289Z,99745.55
2022-08-21T11:19:35.371Z,99745.95
2022-08-21T11:22:30.881Z,99747.41
2022-08-21T11:25:15.325Z,99742.44
2022-08-21T11:27:57.527Z,99748.76
2022-08-21T11:31:01.284Z,99749.66
2022-08-21T11:34:01.948Z,99743.73
2022-08-21T11:36:48.946Z,99747.84
2022-08-21T11:39:32.191Z,99751.19
2022-08-21T11:42:31.558Z,99743.81
2022-08-21T11:45:21.089Z,99741.41
2022-08-21T11:48:09.128Z,99733.60
2022-08-21T11:50:41.437Z,99737.02
2022-08-21T11:53:24.761Z,99736.03
2022-08-21T11:56:15.942Z,99736.11
2022-08-21T11:58:51.039Z,99736.50
2022-08-21T12:01:25.213Z,99732.98
2022-08-21T12:04:00.055Z,99734.34
2022-08-21T12:06:37.271Z,99728.91
2022-08-21T12:09:35.900Z,99728.38
2022-08-21T12:12:06.247Z,99721.50
2022-08-21T12:14:52.717Z,99725.55
2022-08-21T12:17:25.645Z,99716.80
2022-08-21T12:20:02.034Z,99713.47
2022-08-21T12:22:43.859Z,99709.95
2022-08-21T12:25:21.777Z,99708.27
2022-08-21T12:28:09.316Z,99700.31
2022-08-21T12:31:29.624Z,99698.70
2022-08-21T12:34:04.038Z,99694.56
2022-08-21T12:36:45.288Z,99695.98
2022-08-21T12:39:21.023Z,99696.70
2022-08-21T12:42:02.451Z,99695.48
2022-08-21T12:44:42.631Z,99700.83
2022-08-21T12:47:46.697Z,99700.10
2022-08-21T12:50:38.849Z,99701.94
2022-08-21T12:53:28.230Z,99707.33
2022-08-21T12:56:05.085Z,99711.31
2022-08-21T12:58:35.018Z,99712.87
2022-08-21T13:01:14.230Z,99707.57
2022-08-21T13:03:46.204Z,99706.84
2022-08-21T13:06:18.548Z,99708.39
2022-08-21T13:08:52.091Z,99710.23
2022-08-21T13:11:33.643Z,99710.67
2022-08-21T13:14:06.030Z,99710.92
2022-08-21T13:16:36.278Z,99711.50
2022-08-21T13:19:09.603Z,99710.45
2022-08-21T13:21:43.750Z,99708.45
2022-08-21T13:24:42.930Z,99705.73
2022-08-21T13:27:22.306Z,99702.59
2022-08-21T13:30:16.893Z,99701.07
2022-08-21T13:32:50.057Z,99699.76
2022-08-21T13:35:50.962Z,99700.71
2022-08-21T13:38:28.300Z,99702.28
2022-08-21T13:41:11.679Z,99706.02
2022-08-21T13:43:49.929Z,99708.41
2022-08-21T13:46:22.809Z,99708.95
2022-08-21T13:48:54.796Z,99712.63
2022-08-21T13:51:24.335Z,99716.25
2022-08-21T13:53:54.649Z,99718.38
2022-08-21T13:56:31.282Z,99719.54
2022-08-21T13:59:05.287Z,99721.16
2022-08-21T14:01:37.918Z,99717.65
2022-08-21T14:04:31.211Z,99719.44
2022-08-21T14:07:02.591Z,99716.98
2022-08-21T14:09:44.269Z,99717.96
2022-08-21T14:12:25.742Z,99717.38
2022-08-21T14:15:06.297Z,99720.63
2022-08-21T14:17:39.408Z,99720.88
2022-08-21T14:20:11.945Z,99720.35
2022-08-21T14:22:48.418Z,99725.39
2022-08-21T14:25:44.767Z,99720.39
2022-08-21T14:28:33.331Z,99724.33
2022-08-21T14:31:21.797Z,99723.83
2022-08-21T14:33:54.424Z,99721.55
2022-08-21T14:36:23.740Z,99722.77
2022-08-21T14:38:54.272Z,99726.39
2022-08-21T14:41:28.902Z,99723.92
2022-08-21T14:44:08.161Z,99725.11
2022-08-21T14:46:55.190Z,99731.80
2022-08-21T14:49:30.872Z,99734.23
2022-08-21T14:52:00.190Z,99736.72
2022-08-21T14:54:32.656Z,99740.44
2022-08-21T14:57:11.802Z,99743.70
2022-08-21T14:59:44.059Z,99751.77
2022-08-21T15:02:13.269Z,99752.77
2022-08-21T15:04:44.336Z,99754.73
2022-08-21T15:07:13.968Z,99760.69
2022-08-21T15:09:43.138Z,99760.27
2022-08-21T15:12:14.640Z,99757.27
2022-08-21T15:14:44.407Z,99757.15
2022-08-21T15:17:16.061Z,99761.89
2022-08-21T15:19:46.641Z,99770.36
2022-08-21T15:22:19.166Z,99778.63
2022-08-21T15:24:58.543Z,99782.91
2022-08-21T15:27:29.162Z,99780.05
2022-08-21T15:29:58.610Z,99779.08
2022-08-21T15:32:32.058Z,99775.61
2022-08-21T15:35:03.003Z,99783.20
2022-08-21T15:37:33.803Z,99787.18
2022-08-21T15:40:03.299Z,99790.54
2022-08-21T15:42:33.776Z,99790.86
2022-08-21T15:45:09.328Z,99789.69
2022-08-21T15:47:39.941Z,99793.35
2022-08-21T15:50:12.328Z,99790.02
2022-08-21T15:52:41.650Z,99777.63
2022-08-21T15:55:11.932Z,99768.08
2022-08-21T15:57:56.825Z,99768.67
2022-08-21T16:00:29.388Z,99773.08
2022-08-21T16:03:04.504Z,99775.98
2022-08-21T16:05:36.931Z,99784.52
2022-08-21T16:08:05.849Z,99792.17
2022-08-21T16:10:37.011Z,99790.84
2022-08-21T16:13:13.294Z,99789.24
2022-08-21T16:15:43.456Z,99788.25
2022-08-21T16:18:13.713Z,99795.02
2022-08-21T16:20:44.602Z,99801.46
2022-08-21T16:23:16.376Z,99804.55
2022-08-21T16:25:46.699Z,99807.30
2022-08-21T16:28:19.126Z,99813.02
2022-08-21T16:30:53.219Z,99811.10
2022-08-21T16:33:45.186Z,99811.01
2022-08-21T16:36:14.366Z,99819.38
2022-08-21T16:38:45.236Z,99826.26
2022-08-21T16:41:20.192Z,99831.84
2022-08-21T16:43:51.313Z,99831.34
2022-08-21T16:46:22.614Z,99836.91
2022-08-21T16:48:52.492Z,99840.73
2022-08-21T16:51:21.601Z,99848.25
2022-08-21T16:53:52.314Z,99852.45
2022-08-21T16:56:21.204Z,99855.38
2022-08-21T16:58:52.110Z,99853.13
2022-08-21T17:01:28.382Z,99856.83
2022-08-21T17:03:58.979Z,99856.80
2022-08-21T17:06:31.059Z,99858.91
2022-08-21T17:09:01.979Z,99864.23
2022-08-21T17:11:45.613Z,99868.61
2022-08-21T17:14:24.301Z,99866.95
2022-08-21T17:16:56.228Z,99863.73
2022-08-21T17:19:25.324Z,99863.34
2022-08-21T17:21:54.503Z,99866.51
2022-08-21T17:24:23.543Z,99866.48
2022-08-21T17:26:56.811Z,99864.80
2022-08-21T17:29:31.405Z,99864.25
2022-08-21T17:32:02.563Z,99857.75
2022-08-21T17:34:33.550Z,99858.89
2022-08-21T17:37:02.786Z,99868.52
2022-08-21T17:39:33.640Z,99878.01
2022-08-21T17:42:10.347Z,99878.91
2022-08-21T17:44:44.469Z,99879.13
2022-08-21T17:47:15.071Z,99874.58
2022-08-21T17:49:44.619Z,99880.37
2022-08-21T17:52:15.270Z,99881.82
2022-08-21T17:54:44.520Z,99884.34
2022-08-21T17:57:21.575Z,99887.17
2022-08-21T17:59:58.190Z,99889.04
2022-08-21T18:02:32.320Z,99887.79
2022-08-21T18:05:03.533Z,99888.02
2022-08-21T18:07:33.065Z,99889.98
2022-08-21T18:10:09.050Z,99893.77
2022-08-21T18:12:43.018Z,99894.77
2022-08-21T18:15:16.203Z,99894.36
2022-08-21T18:17:48.795Z,99900.64
2022-08-21T18:20:21.020Z,99901.34
2022-08-21T18:22:50.743Z,99896.98
2022-08-21T18:25:21.462Z,99893.83
2022-08-21T18:27:51.720Z,99891.84
2022-08-21T18:34:55.510Z,99894.34
2022-08-21T18:37:26.633Z,99896.30
2022-08-21T18:39:55.825Z,99903.14
2022-08-21T18:42:28.592Z,99909.32
2022-08-21T18:45:05.041Z,99913.95
2022-08-21T18:47:41.827Z,99914.74
2022-08-21T18:50:13.912Z,99914.69
2022-08-21T18:52:52.506Z,99911.88
2022-08-21T18:55:24.881Z,99912.70
2022-08-21T18:57:59.515Z,99912.10
2022-08-21T19:00:37.734Z,99907.30
2022-08-21T19:03:15.801Z,99905.57
2022-08-21T19:05:54.579Z,99903.21
2022-08-21T19:08:25.998Z,99897.75
2022-08-21T19:11:01.934Z,99897.13
2022-08-21T19:13:35.077Z,99901.45
2022-08-21T19:16:09.592Z,99905.30
2022-08-21T19:18:42.455Z,99907.02
2022-08-21T19:21:13.131Z,99909.05
2022-08-21T19:23:44.456Z,99913.14
2022-08-21T19:26:17.446Z,99917.81
2022-08-21T19:28:54.872Z,99919.52
2022-08-21T19:31:36.414Z,99921.81
2022-08-21T19:34:26.273Z,99920.84
2022-08-21T19:37:00.240Z,99920.61
2022-08-21T19:39:32.836Z,99917.24
2022-08-21T19:42:04.137Z,99916.05
2022-08-21T19:44:34.544Z,99917.99
2022-08-21T19:47:07.437Z,99919.31
2022-08-21T19:49:44.894Z,99921.08
2022-08-21T19:52:16.456Z,99917.67
2022-08-21T19:54:49.418Z,99918.17
2022-08-21T19:57:20.135Z,99922.17
2022-08-21T19:59:51.253Z,99924.95
2022-08-21T20:02:21.101Z,99927.45
2022-08-21T20:04:57.929Z,99932.13
2022-08-21T20:07:36.173Z,99935.00
2022-08-21T20:10:06.924Z,99933.02
2022-08-21T20:12:37.680Z,99934.17
2022-08-21T20:15:09.515Z,99928.65
2022-08-21T20:17:43.003Z,99924.44
2022-08-21T20:20:16.073Z,99931.64
2022-08-21T20:22:47.619Z,99926.81
2022-08-21T20:25:22.312Z,99921.20
2022-08-21T20:27:54.511Z,99919.55
2022-08-21T20:30:23.676Z,99922.13
2022-08-21T20:32:55.341Z,99919.40
2022-08-21T20:35:27.646Z,99918.66
2022-08-21T20:37:57.963Z,99918.55
2022-08-21T20:40:32.913Z,99916.69
2022-08-21T20:43:06.046Z,99922.46
2022-08-21T20:45:38.731Z,99922.15
2022-08-21T20:48:23.557Z,99921.64
2022-08-21T20:51:00.868Z,99926.66
2022-08-21T20:53:43.494Z,99925.09
2022-08-21T20:56:17.838Z,99929.34
2022-08-21T20:59:00.284Z,99927.34
2022-08-21T21:01:33.871Z,99925.86
2022-08-21T21:04:19.710Z,99926.41
2022-08-21T21:06:58.378Z,99929.81
2022-08-21T21:09:41.132Z,99932.48
2022-08-21T21:12:28.022Z,99929.41
2022-08-21T21:15:15.590Z,99932.48
2022-08-21T21:18:41.405Z,99933.60
2022-08-21T21:21:20.185Z,99931.66
2022-08-21T21:24:10.789Z,99930.33
2022-08-21T21:26:49.893Z,99933.05
2022-08-21T21:29:30.267Z,99931.46
2022-08-21T21:32:01.029Z,99935.55
2022-08-21T21:34:33.855Z,99936.09
2022-08-21T21:37:30.621Z,99934.97
2022-08-21T21:40:21.118Z,99935.06
2022-08-21T21:43:03.845Z,99938.40
2022-08-21T21:45:43.013Z,99933.68
2022-08-21T21:51:27.861Z,99940.13
2022-08-21T21:54:18.808Z,99941.45
2022-08-21T21:57:17.764Z,99943.79
2022-08-21T22:00:14.236Z,99946.70
2022-08-21T22:03:08.165Z,99942.55
2022-08-21T22:06:04.915Z,99946.55
2022-08-21T22:08:51.966Z,99943.40
2022-08-21T22:11:32.442Z,99946.90
2022-08-21T22:14:22.684Z,99948.88
2022-08-21T22:16:54.267Z,99949.37
2022-08-21T22:19:34.147Z,99953.02
2022-08-21T22:22:18.236Z,99951.60
2022-08-21T22:24:50.908Z,99949.83
2022-08-21T22:27:33.226Z,99946.91
2022-08-21T22:30:54.115Z,99943.33
2022-08-21T22:33:28.888Z,99948.05
2022-08-21T22:36:00.774Z,99949.64
2022-08-21T22:38:34.202Z,99951.09
2022-08-21T22:41:27.936Z,99952.65
2022-08-21T22:47:06.032Z,99957.04
2022-08-21T22:49:47.579Z,99955.50
2022-08-21T22:52:30.918Z,99953.73
2022-08-21T22:55:29.648Z,99955.23
2022-08-21T22:58:38.314Z,99953.64
2022-08-21T23:01:33.857Z,99956.20
2022-08-21T23:04:23.671Z,99955.84
2022-08-21T23:07:06.105Z,99955.60
2022-08-21T23:09:47.225Z,99953.37
2022-08-21T23:12:34.631Z,99952.88
2022-08-21T23:15:10.853Z,99955.11
2022-08-21T23:18:01.419Z,99955.41
2022-08-21T23:20:58.059Z,99956.83
2022-08-21T23:23:34.901Z,99956.84
2022-08-21T23:26:52.162Z,99954.27
2022-08-21T23:30:04.662Z,99960.20
2022-08-21T23:32:57.090Z,99960.36
2022-08-21T23:36:08.168Z,99962.61
2022-08-21T23:38:53.189Z,99962.38
2022-08-21T23:42:00.814Z,99964.03
2022-08-21T23:45:14.190Z,99967.08
2022-08-21T23:48:04.490Z,99965.35
2022-08-21T23:50:44.487Z,99966.15
2022-08-21T23:59:18.123Z,99964.17
